Flight Track Log - Related Links

Times and Time Zones

All times are in EDT time to prevent confusion due to time zone crossing. See the AAY863 flight status page for this flight to view local times or setup timezone preferences in your user account.

Time Position Orientation Groundspeed Altitude Reporting Facility
EDT Latitude Longitude Course Direction KTS MPH feet Rate Location/Type
Sun 07:19:35 PM 41.8358 -91.7919 143° Southeast 269 310 3,900  Level Chicago Center
Sun 07:20:36 PM 41.7500 -91.7436 157° South 278 320 7,600 3,024 Climbing Chicago Center
Sun 07:21:38 PM 41.6719 -91.7017 158° South 304 350 10,100 1,935 Climbing Chicago Center
Sun 07:22:40 PM 41.5778 -91.6461 156° South 367 422 11,600 1,790 Climbing Chicago Center
Sun 07:23:42 PM 41.4831 -91.5733 150° Southeast 394 453 13,800 2,226 Climbing Chicago Center
Sun 07:24:00 PM 41.0853 -91.1019 143° Southeast  Level FlightAware Approximate
Sun 07:24:44 PM 41.3961 -91.4656 137° Southeast 427 491 16,200  Level Chicago Center
Sun 07:25:46 PM 41.2861 -91.3372 139° Southeast 440 506 18,400 1,935 Climbing Chicago Center
Sun 07:26:48 PM 41.2042 -91.2392 138° Southeast 457 526 20,200 1,887 Climbing Chicago Center
Sun 07:27:50 PM 41.0878 -91.1025 138° Southeast 466 536 22,300 1,805 Climbing Chicago Center
Sun 07:28:51 PM 40.9881 -90.9856 138° Southeast 476 548 23,900 1,512 Climbing Chicago Center
Sun 07:29:53 PM 40.8861 -90.8658 138° Southeast 489 563 25,400 1,548 Climbing Chicago Center
Sun 07:30:55 PM 40.7825 -90.7453 139° Southeast 496 571 27,100 1,597 Climbing Chicago Center
Sun 07:31:57 PM 40.6803 -90.6289 139° Southeast 491 565 28,700 1,597 Climbing Chicago Center
Sun 07:32:59 PM 40.5783 -90.5117 139° Southeast 490 564 30,400 1,113 Climbing Chicago Center
Sun 07:34:01 PM 40.4594 -90.3736 139° Southeast 481 554 31,000 290 Climbing Chicago Center
Sun 07:35:03 PM 40.3589 -90.2608 139° Southeast 480 552 31,000  Level Chicago Center
Sun 07:36:05 PM 40.2578 -90.1450 139° Southeast 485 558 31,000  Level Chicago Center
Sun 07:37:07 PM 40.1569 -90.0297 139° Southeast 485 558 31,000  Level Chicago Center
Sun 07:38:09 PM 40.0544 -89.9153 139° Southeast 487 560 31,000  Level Chicago Center
Sun 07:38:25 PM 40.0133 -89.8681 139° Southeast 488 562 31,000  Level Kansas City Center
Sun 07:39:27 PM 39.9097 -89.7519 139° Southeast 490 564 31,000 537 Level Kansas City Center
Sun 07:40:28 PM 39.8075 -89.6375 139° Southeast 489 563 32,100 927 Climbing Kansas City Center
Sun 07:41:30 PM 39.6917 -89.5222 143° Southeast 481 554 32,900 435 Climbing Kansas City Center
Sun 07:42:32 PM 39.5864 -89.4131 141° Southeast 481 554 33,000 48 Climbing Kansas City Center
Sun 07:43:34 PM 39.4814 -89.3050 142° Southeast 482 555 33,000  Level Kansas City Center
Sun 07:44:36 PM 39.3750 -89.1967 142° Southeast 483 556 33,000  Level Kansas City Center
Sun 07:45:38 PM 39.2683 -89.0894 142° Southeast 483 556 33,000  Level Kansas City Center
Sun 07:46:40 PM 39.1622 -88.9814 142° Southeast 485 558 33,000  Level Kansas City Center
Sun 07:47:42 PM 39.0619 -88.8753 141° Southeast 472 543 33,000  Level Kansas City Center
Sun 07:48:44 PM 38.9347 -88.7467 142° Southeast 479 551 33,000  Level Kansas City Center
Sun 07:49:45 PM 38.8289 -88.6406 142° Southeast 482 555 33,000  Level Kansas City Center
Sun 07:50:47 PM 38.7103 -88.5250 143° Southeast 484 557 33,000  Level Kansas City Center
Sun 07:51:49 PM 38.6044 -88.4208 142° Southeast 482 555 33,000  Level Kansas City Center
Sun 07:52:51 PM 38.4972 -88.3164 143° Southeast 482 555 33,000  Level Kansas City Center
Sun 07:53:53 PM 38.3906 -88.2114 142° Southeast 483 556 33,000  Level Kansas City Center
Sun 07:54:55 PM 38.2839 -88.1078 143° Southeast 483 556 33,000  Level Kansas City Center
Sun 07:55:18 PM 38.2425 -88.0672 142° Southeast 481 554 33,000  Level Indianapolis Center
Sun 07:56:20 PM 38.1378 -87.9633 142° Southeast 480 552 33,000  Level Indianapolis Center
Sun 07:56:59 PM 38.0719 -87.9003 143° Southeast 481 554 33,000  Level Kansas City Center
Sun 07:57:21 PM 38.0306 -87.8619 144° Southeast 480 552 33,000  Level Indianapolis Center
Sun 07:58:23 PM 37.9228 -87.7603 143° Southeast 483 556 33,000  Level Indianapolis Center
Sun 07:59:25 PM 37.7822 -87.6719 154° Southeast 472 543 33,000  Level Indianapolis Center
Sun 08:00:26 PM 37.6775 -87.6083 154° Southeast 468 539 33,000  Level Indianapolis Center
Sun 08:01:28 PM 37.5583 -87.5367 155° Southeast 470 541 33,000  Level Indianapolis Center
Sun 08:01:44 PM 37.5222 -87.5122 152° Southeast 472 543 33,000  Level Memphis Center
Sun 08:02:44 PM 37.4039 -87.4381 154° Southeast 467 537 33,000  Level Memphis Center
Sun 08:03:44 PM 37.2750 -87.3647 156° South 472 543 33,000  Level Memphis Center
Sun 08:04:44 PM 37.1567 -87.2936 154° Southeast 472 543 33,000  Level Memphis Center
Sun 08:05:44 PM 37.0403 -87.2228 154° Southeast 466 536 33,000  Level Memphis Center
Sun 08:06:44 PM 36.9239 -87.1519 154° Southeast 472 543 33,000  Level Memphis Center
Sun 08:07:44 PM 36.8033 -87.0869 157° South 472 543 33,000  Level Memphis Center
Sun 08:08:44 PM 36.6850 -87.0294 159° South 461 531 33,000  Level Memphis Center
Sun 08:09:44 PM 36.5647 -86.9725 159° South 456 525 33,000  Level Memphis Center
Sun 08:10:44 PM 36.4444 -86.9156 159° South 462 532 33,000  Level Memphis Center
Sun 08:11:44 PM 36.3239 -86.8589 159° South 462 532 33,000  Level Memphis Center
Sun 08:12:44 PM 36.2056 -86.8050 160° South 462 532 33,000  Level Memphis Center
Sun 08:13:44 PM 36.0872 -86.7483 159° South 457 526 33,000  Level Memphis Center
Sun 08:16:10 PM 35.8142 -86.6225 160° South 465 535 33,000  Level Atlanta Center
Sun 08:17:10 PM 35.6922 -86.5700 161° South 465 535 33,000  Level Atlanta Center
Sun 08:18:10 PM 35.5703 -86.5128 159° South 465 535 33,000  Level Atlanta Center
Sun 08:19:10 PM 35.4503 -86.4581 160° South 465 535 33,000  Level Atlanta Center
Sun 08:20:10 PM 35.3200 -86.3983 159° South 460 529 33,000  Level Atlanta Center
Sun 08:21:10 PM 35.2042 -86.3492 161° South 454 522 33,000  Level Atlanta Center
Sun 08:22:10 PM 35.0861 -86.3078 164° South 443 510 33,000  Level Atlanta Center
Sun 08:23:10 PM 34.9719 -86.2669 164° South 438 504 33,000  Level Atlanta Center
Sun 08:24:10 PM 34.8517 -86.2281 165° South 438 504 33,000  Level Atlanta Center
Sun 08:25:10 PM 34.7336 -86.1872 164° South 433 498 33,000  Level Atlanta Center
Sun 08:26:10 PM 34.6131 -86.1486 165° South 438 504 33,000  Level Atlanta Center
Sun 08:27:10 PM 34.4947 -86.1106 165° South 438 504 33,000  Level Atlanta Center
Sun 08:28:10 PM 34.3744 -86.0672 163° South 438 504 33,000  Level Atlanta Center
Sun 08:29:10 PM 34.2583 -86.0167 160° South 438 504 33,000  Level Atlanta Center
Sun 08:30:10 PM 34.1383 -85.9639 160° South 452 520 33,000  Level Atlanta Center
Sun 08:31:10 PM 34.0181 -85.9058 158° South 452 520 33,000  Level Atlanta Center
Sun 08:32:10 PM 33.9000 -85.8533 160° South 457 526 33,000  Level Atlanta Center
Sun 08:33:10 PM 33.8067 -85.8114 160° South 457 526 33,000  Level Atlanta Center
Sun 08:34:10 PM 33.6758 -85.7536 160° South 457 526 33,000  Level Atlanta Center
Sun 08:35:10 PM 33.5472 -85.6964 160° South 451 519 33,000  Level Atlanta Center
Sun 08:36:10 PM 33.4247 -85.6417 160° South 458 527 33,000  Level Atlanta Center
Sun 08:37:10 PM 33.3192 -85.5875 157° South 464 534 33,000  Level Atlanta Center
Sun 08:38:10 PM 33.1967 -85.5333 160° South 464 534 33,000  Level Atlanta Center
Sun 08:39:10 PM 33.0658 -85.4742 159° South 464 534 33,000  Level Atlanta Center
Sun 08:40:10 PM 32.9475 -85.4200 159° South 464 534 33,000  Level Atlanta Center
Sun 08:41:10 PM 32.8250 -85.3639 159° South 469 540 33,000  Level Atlanta Center
Sun 08:42:10 PM 32.7022 -85.3100 160° South 469 540 33,000  Level Atlanta Center
Sun 08:43:10 PM 32.5797 -85.2542 159° South 464 534 33,000  Level Atlanta Center
Sun 08:44:10 PM 32.4611 -85.2033 160° South 464 534 33,000  Level Atlanta Center
Sun 08:45:10 PM 32.3406 -85.1475 159° South 469 540 33,000  Level Atlanta Center
Sun 08:47:28 PM 32.0794 -85.0331 160° South 460 529 33,000  Level Jacksonville Center
Sun 08:48:28 PM 31.9614 -84.9789 159° South 460 529 33,000  Level Jacksonville Center
Sun 08:49:28 PM 31.8453 -84.9322 161° South 460 529 33,000  Level Jacksonville Center
Sun 08:50:28 PM 31.7292 -84.8783 158° South 455 524 33,000  Level Jacksonville Center
Sun 08:51:28 PM 31.6069 -84.8269 160° South 455 524 33,000  Level Jacksonville Center
Sun 08:52:28 PM 31.4908 -84.7758 159° South 455 524 33,000  Level Jacksonville Center
Sun 08:53:28 PM 31.3703 -84.7222 159° South 455 524 33,000  Level Jacksonville Center
Sun 08:54:28 PM 31.2542 -84.6714 159° South 460 529 33,000  Level Jacksonville Center
Sun 08:55:28 PM 31.1339 -84.6133 158° South 460 529 33,000  Level Jacksonville Center
Sun 08:56:28 PM 31.0158 -84.5458 154° Southeast 466 536 33,000  Level Jacksonville Center
Sun 08:57:28 PM 30.8978 -84.4758 153° Southeast 472 543 33,000  Level Jacksonville Center
Sun 08:58:28 PM 30.7836 -84.4064 152° Southeast 477 549 33,000  Level Jacksonville Center
Sun 08:59:28 PM 30.6633 -84.3392 154° Southeast 477 549 33,000  Level Jacksonville Center
Sun 09:00:28 PM 30.5347 -84.2625 153° Southeast 477 549 33,000  Level Jacksonville Center
Sun 09:01:28 PM 30.4186 -84.1958 154° Southeast 472 543 33,000  Level Jacksonville Center
Sun 09:02:28 PM 30.3147 -84.1342 153° Southeast 458 527 33,000  Level Jacksonville Center
Sun 09:03:28 PM 30.1964 -84.0678 154° Southeast 464 534 33,000  Level Jacksonville Center
Sun 09:04:28 PM 30.0800 -83.9992 153° Southeast 464 534 33,000  Level Jacksonville Center
Sun 09:05:28 PM 29.9636 -83.9306 153° Southeast 464 534 33,000  Level Jacksonville Center
Sun 09:06:28 PM 29.8431 -83.8647 155° Southeast 464 534 33,000  Level Jacksonville Center
Sun 09:07:28 PM 29.7247 -83.7967 153° Southeast 464 534 33,000  Level Jacksonville Center
Sun 09:08:28 PM 29.6042 -83.7261 153° Southeast 464 534 33,000 -350 Level Jacksonville Center
Sun 09:09:28 PM 29.4875 -83.6608 154° Southeast 464 534 32,300 -1,950 Descending Jacksonville Center
Sun 09:10:28 PM 29.3689 -83.5931 154° Southeast 464 534 29,100 -3,200 Descending Jacksonville Center
Sun 09:11:28 PM 29.2483 -83.5233 153° Southeast 464 534 25,900 -2,550 Descending Jacksonville Center
Sun 09:12:28 PM 29.1317 -83.4536 152° Southeast 464 534 24,000 -950 Descending Jacksonville Center
Sun 09:13:28 PM 29.0089 -83.3722 150° Southeast 469 540 24,000 -400 Level Jacksonville Center
Sun 09:14:28 PM 28.8944 -83.3006 151° Southeast 469 540 23,200 -1,800 Descending Jacksonville Center
Sun 09:15:28 PM 28.7861 -83.2314 151° Southeast 463 533 20,400 -2,589 Descending Jacksonville Center
Sun 09:17:38 PM 28.5667 -83.1000 152° Southeast 410 472 15,000 -2,621 Descending Tampa TRACON
Sun 09:18:38 PM 28.4667 -83.0333 150° Southeast 403 464 12,100 -2,000 Descending Tampa TRACON
Sun 09:19:38 PM 28.3667 -82.9667 150° Southeast 398 458 11,000 -650 Descending Tampa TRACON
Sun 09:20:38 PM 28.2667 -82.9167 156° South 380 437 10,800 -500 Descending Tampa TRACON
Sun 09:21:38 PM 28.2000 -82.8667 147° Southeast 324 373 10,000 -1,300 Descending Tampa TRACON
Sun 09:22:38 PM 28.1167 -82.8333 161° South 294 338 8,200 -2,200 Descending Tampa TRACON
Sun 09:23:38 PM 28.0333 -82.8000 161° South 285 328 5,600 -2,400 Descending Tampa TRACON
Sun 09:24:38 PM 27.9667 -82.7833 168° South 281 323 3,400 -1,600 Descending Tampa TRACON
Sun 09:25:38 PM 27.9000 -82.7667 168° South 224 258 2,400 -900 Descending Tampa TRACON
Sun 09:26:38 PM 27.8500 -82.7500 164° South 208 239 1,600 -600 Descending Tampa TRACON
Sun 09:27:38 PM 27.8333 -82.7000 111° Southeast 167 192 1,200 -400 Descending Tampa TRACON

Login

Don't have an account? Register now (free) for customized features, flight alerts, and more!